sensor_id;sensor_type;location;lat;lon;timestamp;temperature;humidity
8591;DHT22;4333;48.322;14.340;2022-11-15T00:02:18;5.40;99.90
8591;DHT22;4333;48.322;14.340;2022-11-15T00:04:44;5.40;99.90
8591;DHT22;4333;48.322;14.340;2022-11-15T00:07:09;5.60;99.90
8591;DHT22;4333;48.322;14.340;2022-11-15T00:09:35;5.60;99.90
8591;DHT22;4333;48.322;14.340;2022-11-15T00:12:03;5.50;99.90
8591;DHT22;4333;48.322;14.340;2022-11-15T00:14:29;5.50;99.90
8591;DHT22;4333;48.322;14.340;2022-11-15T00:16:54;5.50;99.90
8591;DHT22;4333;48.322;14.340;2022-11-15T00:19:20;5.60;99.90
8591;DHT22;4333;48.322;14.340;2022-11-15T00:21:46;5.80;99.90
8591;DHT22;4333;48.322;14.340;2022-11-15T00:24:14;5.80;99.90
8591;DHT22;4333;48.322;14.340;2022-11-15T00:26:39;5.90;99.90
8591;DHT22;4333;48.322;14.340;2022-11-15T00:29:05;5.90;99.90
8591;DHT22;4333;48.322;14.340;2022-11-15T00:31:31;6.00;99.90
8591;DHT22;4333;48.322;14.340;2022-11-15T00:33:56;5.90;99.90
8591;DHT22;4333;48.322;14.340;2022-11-15T00:36:25;5.70;99.90
8591;DHT22;4333;48.322;14.340;2022-11-15T00:38:50;5.60;99.90
8591;DHT22;4333;48.322;14.340;2022-11-15T00:41:16;5.60;99.90
8591;DHT22;4333;48.322;14.340;2022-11-15T00:43:42;5.70;99.90
8591;DHT22;4333;48.322;14.340;2022-11-15T00:46:09;5.70;99.90
8591;DHT22;4333;48.322;14.340;2022-11-15T00:48:36;5.70;99.90
8591;DHT22;4333;48.322;14.340;2022-11-15T00:51:04;5.60;99.90
8591;DHT22;4333;48.322;14.340;2022-11-15T00:53:29;5.40;99.90
8591;DHT22;4333;48.322;14.340;2022-11-15T00:55:55;5.40;99.90
8591;DHT22;4333;48.322;14.340;2022-11-15T00:58:21;5.20;99.90
8591;DHT22;4333;48.322;14.340;2022-11-15T01:00:49;5.10;99.90
8591;DHT22;4333;48.322;14.340;2022-11-15T01:03:17;4.90;99.90
8591;DHT22;4333;48.322;14.340;2022-11-15T01:05:45;4.70;99.90
8591;DHT22;4333;48.322;14.340;2022-11-15T01:08:13;4.60;99.90
8591;DHT22;4333;48.322;14.340;2022-11-15T01:10:39;4.70;99.90
8591;DHT22;4333;48.322;14.340;2022-11-15T01:13:05;4.80;99.90
8591;DHT22;4333;48.322;14.340;2022-11-15T01:15:33;4.70;99.90
8591;DHT22;4333;48.322;14.340;2022-11-15T01:18:02;4.70;99.90
8591;DHT22;4333;48.322;14.340;2022-11-15T01:20:28;4.70;99.90
8591;DHT22;4333;48.322;14.340;2022-11-15T01:22:54;4.60;99.90
8591;DHT22;4333;48.322;14.340;2022-11-15T01:25:19;4.70;99.90
8591;DHT22;4333;48.322;14.340;2022-11-15T01:27:45;4.80;99.90
8591;DHT22;4333;48.322;14.340;2022-11-15T01:30:11;4.90;99.90
8591;DHT22;4333;48.322;14.340;2022-11-15T01:32:37;5.00;99.90
8591;DHT22;4333;48.322;14.340;2022-11-15T01:35:03;5.20;99.90
8591;DHT22;4333;48.322;14.340;2022-11-15T01:37:28;5.30;99.90
8591;DHT22;4333;48.322;14.340;2022-11-15T01:39:54;5.20;99.90
8591;DHT22;4333;48.322;14.340;2022-11-15T01:42:20;5.20;99.90
8591;DHT22;4333;48.322;14.340;2022-11-15T01:44:52;5.10;99.90
8591;DHT22;4333;48.322;14.340;2022-11-15T01:47:36;5.10;99.90
8591;DHT22;4333;48.322;14.340;2022-11-15T01:50:08;5.00;99.90
8591;DHT22;4333;48.322;14.340;2022-11-15T01:52:35;5.00;99.90
8591;DHT22;4333;48.322;14.340;2022-11-15T01:55:06;4.90;99.90
8591;DHT22;4333;48.322;14.340;2022-11-15T01:57:36;4.80;99.90
8591;DHT22;4333;48.322;14.340;2022-11-15T02:00:04;4.80;99.90
8591;DHT22;4333;48.322;14.340;2022-11-15T02:02:36;4.80;99.90
8591;DHT22;4333;48.322;14.340;2022-11-15T02:05:03;4.70;99.90
8591;DHT22;4333;48.322;14.340;2022-11-15T02:07:29;4.60;99.90
8591;DHT22;4333;48.322;14.340;2022-11-15T02:09:59;4.40;99.90
8591;DHT22;4333;48.322;14.340;2022-11-15T02:12:30;4.40;99.90
8591;DHT22;4333;48.322;14.340;2022-11-15T02:14:56;4.30;99.90
8591;DHT22;4333;48.322;14.340;2022-11-15T02:17:36;4.20;99.90
8591;DHT22;4333;48.322;14.340;2022-11-15T02:20:32;4.20;99.90
8591;DHT22;4333;48.322;14.340;2022-11-15T02:32:13;4.10;99.90
8591;DHT22;4333;48.322;14.340;2022-11-15T02:39:51;4.20;99.90
8591;DHT22;4333;48.322;14.340;2022-11-15T02:42:28;4.10;99.90
8591;DHT22;4333;48.322;14.340;2022-11-15T02:45:23;4.10;99.90
8591;DHT22;4333;48.322;14.340;2022-11-15T02:47:52;4.10;99.90
8591;DHT22;4333;48.322;14.340;2022-11-15T02:50:21;4.10;99.90
8591;DHT22;4333;48.322;14.340;2022-11-15T02:52:52;4.10;99.90
8591;DHT22;4333;48.322;14.340;2022-11-15T02:55:41;4.10;99.90
8591;DHT22;4333;48.322;14.340;2022-11-15T02:58:33;4.00;99.90
8591;DHT22;4333;48.322;14.340;2022-11-15T03:06:30;3.90;99.90
8591;DHT22;4333;48.322;14.340;2022-11-15T03:09:09;3.90;99.90
8591;DHT22;4333;48.322;14.340;2022-11-15T03:11:44;4.00;99.90
8591;DHT22;4333;48.322;14.340;2022-11-15T03:14:22;4.20;99.90
8591;DHT22;4333;48.322;14.340;2022-11-15T03:19:47;4.10;99.90
8591;DHT22;4333;48.322;14.340;2022-11-15T03:22:24;4.00;99.90
8591;DHT22;4333;48.322;14.340;2022-11-15T03:24:54;3.90;99.90
8591;DHT22;4333;48.322;14.340;2022-11-15T03:27:26;3.90;99.90
8591;DHT22;4333;48.322;14.340;2022-11-15T03:30:00;4.00;99.90
8591;DHT22;4333;48.322;14.340;2022-11-15T03:32:34;4.10;99.90
8591;DHT22;4333;48.322;14.340;2022-11-15T03:37:52;4.10;99.90
8591;DHT22;4333;48.322;14.340;2022-11-15T03:40:24;4.10;99.90
8591;DHT22;4333;48.322;14.340;2022-11-15T03:45:28;4.00;99.90
8591;DHT22;4333;48.322;14.340;2022-11-15T03:48:12;4.00;99.90
8591;DHT22;4333;48.322;14.340;2022-11-15T03:50:42;4.10;99.90
8591;DHT22;4333;48.322;14.340;2022-11-15T03:53:08;4.10;99.90
8591;DHT22;4333;48.322;14.340;2022-11-15T03:55:34;4.10;99.90
8591;DHT22;4333;48.322;14.340;2022-11-15T03:58:01;4.00;99.90
8591;DHT22;4333;48.322;14.340;2022-11-15T04:00:27;3.90;99.90
8591;DHT22;4333;48.322;14.340;2022-11-15T04:02:53;3.90;99.90
8591;DHT22;4333;48.322;14.340;2022-11-15T04:05:19;4.00;99.90
8591;DHT22;4333;48.322;14.340;2022-11-15T04:07:45;4.20;99.90
8591;DHT22;4333;48.322;14.340;2022-11-15T04:10:11;4.20;99.90
8591;DHT22;4333;48.322;14.340;2022-11-15T04:12:42;4.10;99.90
8591;DHT22;4333;48.322;14.340;2022-11-15T04:15:21;4.10;99.90
8591;DHT22;4333;48.322;14.340;2022-11-15T04:20:18;4.10;99.90
8591;DHT22;4333;48.322;14.340;2022-11-15T04:23:06;4.20;99.90
8591;DHT22;4333;48.322;14.340;2022-11-15T04:25:52;4.10;99.90
8591;DHT22;4333;48.322;14.340;2022-11-15T04:28:18;4.10;99.90
8591;DHT22;4333;48.322;14.340;2022-11-15T04:30:44;4.20;99.90
8591;DHT22;4333;48.322;14.340;2022-11-15T04:33:10;4.20;99.90
8591;DHT22;4333;48.322;14.340;2022-11-15T04:35:35;4.30;99.90
8591;DHT22;4333;48.322;14.340;2022-11-15T04:38:03;4.40;99.90
8591;DHT22;4333;48.322;14.340;2022-11-15T04:40:29;4.40;99.90
8591;DHT22;4333;48.322;14.340;2022-11-15T04:42:55;4.40;99.90
8591;DHT22;4333;48.322;14.340;2022-11-15T04:45:21;4.30;99.90
8591;DHT22;4333;48.322;14.340;2022-11-15T04:47:47;4.30;99.90
8591;DHT22;4333;48.322;14.340;2022-11-15T04:50:17;4.20;99.90
8591;DHT22;4333;48.322;14.340;2022-11-15T04:52:49;4.10;99.90
8591;DHT22;4333;48.322;14.340;2022-11-15T04:55:15;4.00;99.90
8591;DHT22;4333;48.322;14.340;2022-11-15T04:57:43;4.00;99.90
8591;DHT22;4333;48.322;14.340;2022-11-15T05:00:14;4.00;99.90
8591;DHT22;4333;48.322;14.340;2022-11-15T05:02:40;4.10;99.90
8591;DHT22;4333;48.322;14.340;2022-11-15T05:05:27;4.10;99.90
8591;DHT22;4333;48.322;14.340;2022-11-15T05:07:52;4.20;99.90
8591;DHT22;4333;48.322;14.340;2022-11-15T05:10:18;4.10;99.90
8591;DHT22;4333;48.322;14.340;2022-11-15T05:12:44;4.10;99.90
8591;DHT22;4333;48.322;14.340;2022-11-15T05:15:10;4.00;99.90
8591;DHT22;4333;48.322;14.340;2022-11-15T05:17:35;4.10;99.90
8591;DHT22;4333;48.322;14.340;2022-11-15T05:20:01;4.20;99.90
8591;DHT22;4333;48.322;14.340;2022-11-15T05:22:27;4.30;99.90
8591;DHT22;4333;48.322;14.340;2022-11-15T05:24:53;4.40;99.90
8591;DHT22;4333;48.322;14.340;2022-11-15T05:27:20;4.60;99.90
8591;DHT22;4333;48.322;14.340;2022-11-15T05:29:49;4.50;99.90
8591;DHT22;4333;48.322;14.340;2022-11-15T05:32:16;4.60;99.90
8591;DHT22;4333;48.322;14.340;2022-11-15T05:34:42;4.50;99.90
8591;DHT22;4333;48.322;14.340;2022-11-15T05:37:08;4.30;99.90
8591;DHT22;4333;48.322;14.340;2022-11-15T05:39:36;4.50;99.90
8591;DHT22;4333;48.322;14.340;2022-11-15T05:42:07;4.60;99.90
8591;DHT22;4333;48.322;14.340;2022-11-15T05:44:36;4.60;99.90
8591;DHT22;4333;48.322;14.340;2022-11-15T05:47:07;4.50;99.90
8591;DHT22;4333;48.322;14.340;2022-11-15T05:49:38;4.40;99.90
8591;DHT22;4333;48.322;14.340;2022-11-15T05:52:07;4.10;99.90
8591;DHT22;4333;48.322;14.340;2022-11-15T05:54:36;4.10;99.90
8591;DHT22;4333;48.322;14.340;2022-11-15T05:57:05;4.10;99.90
8591;DHT22;4333;48.322;14.340;2022-11-15T05:59:31;4.10;99.90
8591;DHT22;4333;48.322;14.340;2022-11-15T06:02:00;4.10;99.90
8591;DHT22;4333;48.322;14.340;2022-11-15T06:04:26;4.10;99.90
8591;DHT22;4333;48.322;14.340;2022-11-15T06:06:54;3.90;99.90
8591;DHT22;4333;48.322;14.340;2022-11-15T06:09:20;3.80;99.90
8591;DHT22;4333;48.322;14.340;2022-11-15T06:11:45;3.80;99.90
8591;DHT22;4333;48.322;14.340;2022-11-15T06:14:11;3.80;99.90
8591;DHT22;4333;48.322;14.340;2022-11-15T06:16:37;3.70;99.90
8591;DHT22;4333;48.322;14.340;2022-11-15T06:19:06;3.70;99.90
8591;DHT22;4333;48.322;14.340;2022-11-15T06:21:32;3.70;99.90
8591;DHT22;4333;48.322;14.340;2022-11-15T06:23:57;3.70;99.90
8591;DHT22;4333;48.322;14.340;2022-11-15T06:26:23;3.70;99.90
8591;DHT22;4333;48.322;14.340;2022-11-15T06:28:51;3.70;99.90
8591;DHT22;4333;48.322;14.340;2022-11-15T06:31:17;3.70;99.90
8591;DHT22;4333;48.322;14.340;2022-11-15T06:33:42;3.80;99.90
8591;DHT22;4333;48.322;14.340;2022-11-15T06:36:11;3.90;99.90
8591;DHT22;4333;48.322;14.340;2022-11-15T06:38:39;3.90;99.90
8591;DHT22;4333;48.322;14.340;2022-11-15T06:41:09;3.90;99.90
8591;DHT22;4333;48.322;14.340;2022-11-15T06:43:36;3.80;99.90
8591;DHT22;4333;48.322;14.340;2022-11-15T06:46:03;3.80;99.90
8591;DHT22;4333;48.322;14.340;2022-11-15T06:48:30;3.80;99.90
8591;DHT22;4333;48.322;14.340;2022-11-15T06:50:58;3.90;99.90
8591;DHT22;4333;48.322;14.340;2022-11-15T06:53:25;3.90;99.90
8591;DHT22;4333;48.322;14.340;2022-11-15T06:55:51;3.90;99.90
8591;DHT22;4333;48.322;14.340;2022-11-15T06:58:17;3.90;99.90
8591;DHT22;4333;48.322;14.340;2022-11-15T07:00:43;3.90;99.90
8591;DHT22;4333;48.322;14.340;2022-11-15T07:03:09;3.90;99.90
8591;DHT22;4333;48.322;14.340;2022-11-15T07:05:36;3.90;99.90
8591;DHT22;4333;48.322;14.340;2022-11-15T07:08:02;3.90;99.90
8591;DHT22;4333;48.322;14.340;2022-11-15T07:10:28;4.00;99.90
8591;DHT22;4333;48.322;14.340;2022-11-15T07:12:55;4.00;99.90
8591;DHT22;4333;48.322;14.340;2022-11-15T07:15:23;4.10;99.90
8591;DHT22;4333;48.322;14.340;2022-11-15T07:17:54;4.10;99.90
8591;DHT22;4333;48.322;14.340;2022-11-15T07:20:20;4.10;99.90
8591;DHT22;4333;48.322;14.340;2022-11-15T07:22:48;4.10;99.90
8591;DHT22;4333;48.322;14.340;2022-11-15T07:25:14;4.10;99.90
8591;DHT22;4333;48.322;14.340;2022-11-15T07:27:39;4.20;99.90
8591;DHT22;4333;48.322;14.340;2022-11-15T07:30:05;4.30;99.90
8591;DHT22;4333;48.322;14.340;2022-11-15T07:32:31;4.30;99.90
8591;DHT22;4333;48.322;14.340;2022-11-15T07:34:57;4.30;99.90
8591;DHT22;4333;48.322;14.340;2022-11-15T07:37:23;4.30;99.90
8591;DHT22;4333;48.322;14.340;2022-11-15T07:39:48;4.30;99.90
8591;DHT22;4333;48.322;14.340;2022-11-15T07:42:14;4.30;99.90
8591;DHT22;4333;48.322;14.340;2022-11-15T07:44:58;4.40;99.90
8591;DHT22;4333;48.322;14.340;2022-11-15T07:47:24;4.40;99.90
8591;DHT22;4333;48.322;14.340;2022-11-15T07:49:50;4.50;99.90
8591;DHT22;4333;48.322;14.340;2022-11-15T07:52:15;4.50;99.90
8591;DHT22;4333;48.322;14.340;2022-11-15T07:54:44;4.50;99.90
8591;DHT22;4333;48.322;14.340;2022-11-15T07:57:09;4.60;99.90
8591;DHT22;4333;48.322;14.340;2022-11-15T07:59:38;4.60;99.90
8591;DHT22;4333;48.322;14.340;2022-11-15T08:02:08;4.60;99.90
8591;DHT22;4333;48.322;14.340;2022-11-15T08:04:33;4.70;99.90
8591;DHT22;4333;48.322;14.340;2022-11-15T08:06:59;5.10;99.90
8591;DHT22;4333;48.322;14.340;2022-11-15T08:09:25;5.40;99.90
8591;DHT22;4333;48.322;14.340;2022-11-15T08:11:51;5.80;99.90
8591;DHT22;4333;48.322;14.340;2022-11-15T08:14:19;6.50;99.90
8591;DHT22;4333;48.322;14.340;2022-11-15T08:16:47;7.40;99.90
8591;DHT22;4333;48.322;14.340;2022-11-15T08:19:16;8.20;99.90
8591;DHT22;4333;48.322;14.340;2022-11-15T08:21:44;8.90;99.90
8591;DHT22;4333;48.322;14.340;2022-11-15T08:24:10;9.60;99.90
8591;DHT22;4333;48.322;14.340;2022-11-15T08:26:36;10.00;99.90
8591;DHT22;4333;48.322;14.340;2022-11-15T08:29:02;10.30;99.90
8591;DHT22;4333;48.322;14.340;2022-11-15T08:31:30;11.10;99.90
8591;DHT22;4333;48.322;14.340;2022-11-15T08:33:56;12.40;99.90
8591;DHT22;4333;48.322;14.340;2022-11-15T08:36:22;13.00;99.90
8591;DHT22;4333;48.322;14.340;2022-11-15T08:38:48;12.20;99.90
8591;DHT22;4333;48.322;14.340;2022-11-15T08:41:31;11.40;99.90
8591;DHT22;4333;48.322;14.340;2022-11-15T08:43:57;10.60;99.90
8591;DHT22;4333;48.322;14.340;2022-11-15T08:46:23;9.90;99.90
8591;DHT22;4333;48.322;14.340;2022-11-15T08:48:49;10.00;99.90
8591;DHT22;4333;48.322;14.340;2022-11-15T08:51:15;10.10;99.90
8591;DHT22;4333;48.322;14.340;2022-11-15T08:53:43;9.30;99.90
8591;DHT22;4333;48.322;14.340;2022-11-15T08:56:14;9.00;99.90
8591;DHT22;4333;48.322;14.340;2022-11-15T08:58:40;9.10;99.90
8591;DHT22;4333;48.322;14.340;2022-11-15T09:01:13;9.20;99.90
8591;DHT22;4333;48.322;14.340;2022-11-15T09:03:40;9.30;99.90
8591;DHT22;4333;48.322;14.340;2022-11-15T09:06:06;10.00;99.90
8591;DHT22;4333;48.322;14.340;2022-11-15T09:08:34;10.30;99.90
8591;DHT22;4333;48.322;14.340;2022-11-15T09:11:06;10.90;99.90
8591;DHT22;4333;48.322;14.340;2022-11-15T09:13:32;11.40;99.90
8591;DHT22;4333;48.322;14.340;2022-11-15T09:16:00;11.50;99.90
8591;DHT22;4333;48.322;14.340;2022-11-15T09:18:27;11.80;99.90
8591;DHT22;4333;48.322;14.340;2022-11-15T09:20:56;11.90;99.90
8591;DHT22;4333;48.322;14.340;2022-11-15T09:23:22;12.20;99.90
8591;DHT22;4333;48.322;14.340;2022-11-15T09:25:48;12.30;99.90
8591;DHT22;4333;48.322;14.340;2022-11-15T09:28:14;12.30;98.30
8591;DHT22;4333;48.322;14.340;2022-11-15T09:30:40;12.20;99.90
8591;DHT22;4333;48.322;14.340;2022-11-15T09:33:09;11.00;99.90
8591;DHT22;4333;48.322;14.340;2022-11-15T09:35:35;10.30;99.90
8591;DHT22;4333;48.322;14.340;2022-11-15T09:38:03;9.80;99.90
8591;DHT22;4333;48.322;14.340;2022-11-15T09:40:31;9.70;99.90
8591;DHT22;4333;48.322;14.340;2022-11-15T09:43:24;9.30;99.90
8591;DHT22;4333;48.322;14.340;2022-11-15T09:54:16;8.10;99.90
8591;DHT22;4333;48.322;14.340;2022-11-15T09:56:43;8.00;99.90
8591;DHT22;4333;48.322;14.340;2022-11-15T10:04:47;7.90;99.90
8591;DHT22;4333;48.322;14.340;2022-11-15T10:07:24;7.90;99.90
8591;DHT22;4333;48.322;14.340;2022-11-15T10:12:27;7.80;99.90
8591;DHT22;4333;48.322;14.340;2022-11-15T10:15:18;7.80;99.90
8591;DHT22;4333;48.322;14.340;2022-11-15T10:18:08;7.60;99.90
8591;DHT22;4333;48.322;14.340;2022-11-15T10:23:19;7.20;99.90
8591;DHT22;4333;48.322;14.340;2022-11-15T10:25:51;7.10;99.90
8591;DHT22;4333;48.322;14.340;2022-11-15T10:28:21;6.90;99.90
8591;DHT22;4333;48.322;14.340;2022-11-15T10:30:56;6.80;99.90
8591;DHT22;4333;48.322;14.340;2022-11-15T10:33:35;6.90;99.90
8591;DHT22;4333;48.322;14.340;2022-11-15T10:36:15;6.90;99.90
8591;DHT22;4333;48.322;14.340;2022-11-15T10:46:34;7.30;99.90
8591;DHT22;4333;48.322;14.340;2022-11-15T10:49:24;7.40;99.90
8591;DHT22;4333;48.322;14.340;2022-11-15T10:54:45;7.60;99.90
8591;DHT22;4333;48.322;14.340;2022-11-15T10:57:33;7.60;99.90
8591;DHT22;4333;48.322;14.340;2022-11-15T11:00:37;7.70;99.90
8591;DHT22;4333;48.322;14.340;2022-11-15T11:03:40;7.80;99.90
8591;DHT22;4333;48.322;14.340;2022-11-15T11:06:17;7.80;99.90
8591;DHT22;4333;48.322;14.340;2022-11-15T11:08:58;7.80;99.90
8591;DHT22;4333;48.322;14.340;2022-11-15T11:11:25;7.80;99.90
8591;DHT22;4333;48.322;14.340;2022-11-15T11:13:52;7.80;99.90
8591;DHT22;4333;48.322;14.340;2022-11-15T11:16:34;7.90;99.90
8591;DHT22;4333;48.322;14.340;2022-11-15T11:22:19;7.60;99.90
8591;DHT22;4333;48.322;14.340;2022-11-15T11:30:55;7.20;99.90
8591;DHT22;4333;48.322;14.340;2022-11-15T11:44:28;7.60;99.90
8591;DHT22;4333;48.322;14.340;2022-11-15T11:49:42;7.10;99.90
8591;DHT22;4333;48.322;14.340;2022-11-15T11:52:22;7.20;99.90
8591;DHT22;4333;48.322;14.340;2022-11-15T11:55:14;7.30;99.90
8591;DHT22;4333;48.322;14.340;2022-11-15T12:00:26;7.30;99.90
8591;DHT22;4333;48.322;14.340;2022-11-15T12:05:44;7.00;99.90
8591;DHT22;4333;48.322;14.340;2022-11-15T12:10:59;7.10;99.90
8591;DHT22;4333;48.322;14.340;2022-11-15T12:13:28;7.10;99.90
8591;DHT22;4333;48.322;14.340;2022-11-15T12:18:20;7.30;99.90
8591;DHT22;4333;48.322;14.340;2022-11-15T12:23:59;7.50;99.90
8591;DHT22;4333;48.322;14.340;2022-11-15T12:26:34;7.60;99.90
8591;DHT22;4333;48.322;14.340;2022-11-15T12:29:11;7.70;99.90
8591;DHT22;4333;48.322;14.340;2022-11-15T12:31:50;7.70;99.90
8591;DHT22;4333;48.322;14.340;2022-11-15T12:36:47;7.80;99.90
8591;DHT22;4333;48.322;14.340;2022-11-15T12:39:14;7.80;99.90
8591;DHT22;4333;48.322;14.340;2022-11-15T12:59:54;7.60;99.90
8591;DHT22;4333;48.322;14.340;2022-11-15T13:02:42;7.70;99.90
8591;DHT22;4333;48.322;14.340;2022-11-15T13:17:53;7.90;99.90
8591;DHT22;4333;48.322;14.340;2022-11-15T13:20:31;7.70;99.90
8591;DHT22;4333;48.322;14.340;2022-11-15T13:23:12;7.40;99.90
8591;DHT22;4333;48.322;14.340;2022-11-15T13:33:22;7.10;99.90
8591;DHT22;4333;48.322;14.340;2022-11-15T13:35:54;7.10;99.90
8591;DHT22;4333;48.322;14.340;2022-11-15T13:38:28;7.10;99.90
8591;DHT22;4333;48.322;14.340;2022-11-15T13:40:58;7.00;99.90
8591;DHT22;4333;48.322;14.340;2022-11-15T13:43:36;6.90;99.90
8591;DHT22;4333;48.322;14.340;2022-11-15T13:48:45;6.90;99.90
8591;DHT22;4333;48.322;14.340;2022-11-15T13:51:36;7.00;99.90
8591;DHT22;4333;48.322;14.340;2022-11-15T13:56:44;7.00;99.90
8591;DHT22;4333;48.322;14.340;2022-11-15T13:59:26;7.00;99.90
8591;DHT22;4333;48.322;14.340;2022-11-15T14:01:55;7.10;99.90
8591;DHT22;4333;48.322;14.340;2022-11-15T14:04:26;7.10;99.90
8591;DHT22;4333;48.322;14.340;2022-11-15T14:06:56;7.20;99.90
8591;DHT22;4333;48.322;14.340;2022-11-15T14:09:30;7.30;99.90
8591;DHT22;4333;48.322;14.340;2022-11-15T14:11:58;7.30;99.90
8591;DHT22;4333;48.322;14.340;2022-11-15T14:14:26;7.40;99.90
8591;DHT22;4333;48.322;14.340;2022-11-15T14:16:59;7.40;99.90
8591;DHT22;4333;48.322;14.340;2022-11-15T14:22:29;7.50;99.90
8591;DHT22;4333;48.322;14.340;2022-11-15T14:25:31;7.30;99.90
8591;DHT22;4333;48.322;14.340;2022-11-15T14:30:41;7.20;99.90
8591;DHT22;4333;48.322;14.340;2022-11-15T14:35:53;7.20;99.90
8591;DHT22;4333;48.322;14.340;2022-11-15T14:38:21;7.20;99.90
8591;DHT22;4333;48.322;14.340;2022-11-15T14:40:47;7.10;99.90
8591;DHT22;4333;48.322;14.340;2022-11-15T14:43:15;7.00;99.90
8591;DHT22;4333;48.322;14.340;2022-11-15T14:45:41;7.00;99.90
8591;DHT22;4333;48.322;14.340;2022-11-15T14:48:07;7.00;99.90
8591;DHT22;4333;48.322;14.340;2022-11-15T14:50:34;7.00;99.90
8591;DHT22;4333;48.322;14.340;2022-11-15T14:53:00;7.10;99.90
8591;DHT22;4333;48.322;14.340;2022-11-15T14:55:31;7.00;99.90
8591;DHT22;4333;48.322;14.340;2022-11-15T14:57:59;6.90;99.90
8591;DHT22;4333;48.322;14.340;2022-11-15T15:00:25;6.90;99.90
8591;DHT22;4333;48.322;14.340;2022-11-15T15:02:53;6.90;99.90
8591;DHT22;4333;48.322;14.340;2022-11-15T15:07:58;6.80;99.90
8591;DHT22;4333;48.322;14.340;2022-11-15T15:10:25;6.70;99.90
8591;DHT22;4333;48.322;14.340;2022-11-15T15:12:52;6.70;99.90
8591;DHT22;4333;48.322;14.340;2022-11-15T15:15:23;6.60;99.90
8591;DHT22;4333;48.322;14.340;2022-11-15T15:17:54;6.50;99.90
8591;DHT22;4333;48.322;14.340;2022-11-15T15:20:20;6.50;99.90
8591;DHT22;4333;48.322;14.340;2022-11-15T15:22:46;6.50;99.90
8591;DHT22;4333;48.322;14.340;2022-11-15T15:25:30;6.50;99.90
8591;DHT22;4333;48.322;14.340;2022-11-15T15:27:57;6.50;99.90
8591;DHT22;4333;48.322;14.340;2022-11-15T15:30:26;6.60;99.90
8591;DHT22;4333;48.322;14.340;2022-11-15T15:32:52;6.60;99.90
8591;DHT22;4333;48.322;14.340;2022-11-15T15:35:19;6.60;99.90
8591;DHT22;4333;48.322;14.340;2022-11-15T15:37:46;6.60;99.90
8591;DHT22;4333;48.322;14.340;2022-11-15T15:40:20;6.70;99.90
8591;DHT22;4333;48.322;14.340;2022-11-15T15:42:47;6.70;99.90
8591;DHT22;4333;48.322;14.340;2022-11-15T15:45:14;6.70;99.90
8591;DHT22;4333;48.322;14.340;2022-11-15T15:47:42;6.70;99.90
8591;DHT22;4333;48.322;14.340;2022-11-15T15:52:51;6.80;99.90
8591;DHT22;4333;48.322;14.340;2022-11-15T15:55:18;6.80;99.90
8591;DHT22;4333;48.322;14.340;2022-11-15T15:57:44;6.80;99.90
8591;DHT22;4333;48.322;14.340;2022-11-15T16:00:10;6.80;99.90
8591;DHT22;4333;48.322;14.340;2022-11-15T16:02:36;6.80;99.90
8591;DHT22;4333;48.322;14.340;2022-11-15T16:05:09;6.80;99.90
8591;DHT22;4333;48.322;14.340;2022-11-15T16:07:36;6.80;99.90
8591;DHT22;4333;48.322;14.340;2022-11-15T16:10:29;6.80;99.90
8591;DHT22;4333;48.322;14.340;2022-11-15T16:12:56;6.80;99.90
8591;DHT22;4333;48.322;14.340;2022-11-15T16:15:24;6.80;99.90
8591;DHT22;4333;48.322;14.340;2022-11-15T16:17:53;6.80;99.90
8591;DHT22;4333;48.322;14.340;2022-11-15T16:22:59;6.70;99.90
8591;DHT22;4333;48.322;14.340;2022-11-15T16:25:25;6.60;99.90
8591;DHT22;4333;48.322;14.340;2022-11-15T16:27:51;6.60;99.90
8591;DHT22;4333;48.322;14.340;2022-11-15T16:30:20;6.70;99.90
8591;DHT22;4333;48.322;14.340;2022-11-15T16:32:46;6.60;99.90
8591;DHT22;4333;48.322;14.340;2022-11-15T16:35:13;6.60;99.90
8591;DHT22;4333;48.322;14.340;2022-11-15T16:37:40;6.60;99.90
8591;DHT22;4333;48.322;14.340;2022-11-15T16:40:30;6.60;99.90
8591;DHT22;4333;48.322;14.340;2022-11-15T16:42:57;6.60;99.90
8591;DHT22;4333;48.322;14.340;2022-11-15T16:45:25;6.60;99.90
8591;DHT22;4333;48.322;14.340;2022-11-15T16:47:53;6.70;99.90
8591;DHT22;4333;48.322;14.340;2022-11-15T16:52:58;6.70;99.90
8591;DHT22;4333;48.322;14.340;2022-11-15T16:55:26;6.70;99.90
8591;DHT22;4333;48.322;14.340;2022-11-15T16:57:53;6.60;99.90
8591;DHT22;4333;48.322;14.340;2022-11-15T17:00:19;6.60;99.90
8591;DHT22;4333;48.322;14.340;2022-11-15T17:02:47;6.60;99.90
8591;DHT22;4333;48.322;14.340;2022-11-15T17:05:14;6.70;99.90
8591;DHT22;4333;48.322;14.340;2022-11-15T17:07:40;6.70;99.90
8591;DHT22;4333;48.322;14.340;2022-11-15T17:10:07;6.70;99.90
8591;DHT22;4333;48.322;14.340;2022-11-15T17:12:34;6.80;99.90
8591;DHT22;4333;48.322;14.340;2022-11-15T17:15:05;6.80;99.90
8591;DHT22;4333;48.322;14.340;2022-11-15T17:17:31;6.80;99.90
8591;DHT22;4333;48.322;14.340;2022-11-15T17:19:57;6.80;99.90
8591;DHT22;4333;48.322;14.340;2022-11-15T17:22:27;6.80;99.90
8591;DHT22;4333;48.322;14.340;2022-11-15T17:24:53;6.80;99.90
8591;DHT22;4333;48.322;14.340;2022-11-15T17:27:19;6.80;99.90
8591;DHT22;4333;48.322;14.340;2022-11-15T17:29:46;6.80;99.90
8591;DHT22;4333;48.322;14.340;2022-11-15T17:32:14;6.70;99.90
8591;DHT22;4333;48.322;14.340;2022-11-15T17:34:40;6.70;99.90
8591;DHT22;4333;48.322;14.340;2022-11-15T17:37:05;6.80;99.90
8591;DHT22;4333;48.322;14.340;2022-11-15T17:39:35;6.80;99.90
8591;DHT22;4333;48.322;14.340;2022-11-15T17:42:03;6.80;99.90
8591;DHT22;4333;48.322;14.340;2022-11-15T17:44:29;6.80;99.90
8591;DHT22;4333;48.322;14.340;2022-11-15T17:46:56;6.80;99.90
8591;DHT22;4333;48.322;14.340;2022-11-15T17:49:21;6.80;99.90
8591;DHT22;4333;48.322;14.340;2022-11-15T17:51:47;6.80;99.90
8591;DHT22;4333;48.322;14.340;2022-11-15T17:54:13;6.80;99.90
8591;DHT22;4333;48.322;14.340;2022-11-15T17:56:41;6.80;99.90
8591;DHT22;4333;48.322;14.340;2022-11-15T17:59:09;6.80;99.90
8591;DHT22;4333;48.322;14.340;2022-11-15T18:01:37;6.80;99.90
8591;DHT22;4333;48.322;14.340;2022-11-15T18:04:07;6.80;99.90
8591;DHT22;4333;48.322;14.340;2022-11-15T18:06:38;6.80;99.90
8591;DHT22;4333;48.322;14.340;2022-11-15T18:09:04;6.90;99.90
8591;DHT22;4333;48.322;14.340;2022-11-15T18:11:35;6.80;99.90
8591;DHT22;4333;48.322;14.340;2022-11-15T18:14:08;6.80;99.90
8591;DHT22;4333;48.322;14.340;2022-11-15T18:16:36;6.70;99.90
8591;DHT22;4333;48.322;14.340;2022-11-15T18:19:05;6.70;99.90
8591;DHT22;4333;48.322;14.340;2022-11-15T18:21:36;6.70;99.90
8591;DHT22;4333;48.322;14.340;2022-11-15T18:24:33;6.70;99.90
8591;DHT22;4333;48.322;14.340;2022-11-15T18:27:00;6.70;99.90
8591;DHT22;4333;48.322;14.340;2022-11-15T18:29:26;6.70;99.90
8591;DHT22;4333;48.322;14.340;2022-11-15T18:31:52;6.60;99.90
8591;DHT22;4333;48.322;14.340;2022-11-15T18:34:28;6.60;99.90
8591;DHT22;4333;48.322;14.340;2022-11-15T18:37:00;6.60;99.90
8591;DHT22;4333;48.322;14.340;2022-11-15T18:39:27;6.60;99.90
8591;DHT22;4333;48.322;14.340;2022-11-15T18:41:52;6.60;99.90
8591;DHT22;4333;48.322;14.340;2022-11-15T18:44:18;6.60;99.90
8591;DHT22;4333;48.322;14.340;2022-11-15T18:46:44;6.60;99.90
8591;DHT22;4333;48.322;14.340;2022-11-15T18:49:12;6.50;99.90
8591;DHT22;4333;48.322;14.340;2022-11-15T18:51:38;6.60;99.90
8591;DHT22;4333;48.322;14.340;2022-11-15T18:54:08;6.60;99.90
8591;DHT22;4333;48.322;14.340;2022-11-15T18:56:36;6.60;99.90
8591;DHT22;4333;48.322;14.340;2022-11-15T18:59:03;6.50;99.90